createdAt,value
2022-08-16T00:00:26.250Z,16.52
2022-08-16T00:01:15.245Z,16.52
2022-08-16T00:02:12.871Z,16.52
2022-08-16T00:02:56.209Z,16.52
2022-08-16T00:03:45.208Z,16.54
2022-08-16T00:04:35.209Z,16.57
2022-08-16T00:05:25.207Z,16.59
2022-08-16T00:06:15.443Z,16.60
2022-08-16T00:07:05.188Z,16.62
2022-08-16T00:07:56.440Z,16.63
2022-08-16T00:08:45.762Z,16.65
2022-08-16T00:09:35.822Z,16.60
2022-08-16T00:10:25.151Z,16.60
2022-08-16T00:11:16.709Z,16.57
2022-08-16T00:12:05.183Z,16.59
2022-08-16T00:12:55.116Z,16.57
2022-08-16T00:13:53.451Z,16.57
2022-08-16T00:14:36.098Z,16.57
2022-08-16T00:15:25.067Z,16.57
2022-08-16T00:17:06.470Z,16.57
2022-08-16T00:17:15.981Z,16.57
2022-08-16T00:17:57.428Z,16.55
2022-08-16T00:18:45.068Z,16.55
2022-08-16T00:19:41.850Z,16.54
2022-08-16T00:20:26.030Z,16.54
2022-08-16T00:21:15.019Z,16.52
2022-08-16T00:22:12.848Z,16.51
2022-08-16T00:22:55.989Z,16.51
2022-08-16T00:23:46.115Z,16.50
2022-08-16T00:24:35.009Z,16.48
2022-08-16T00:26:35.030Z,16.48
2022-08-16T00:26:36.451Z,16.47
2022-08-16T00:27:05.946Z,16.50
2022-08-16T00:27:54.949Z,16.50
2022-08-16T00:28:44.935Z,16.50
2022-08-16T00:29:34.956Z,16.52
2022-08-16T00:30:29.077Z,16.55
2022-08-16T00:31:14.907Z,16.57
2022-08-16T00:32:05.658Z,16.59
2022-08-16T00:32:57.243Z,16.59
2022-08-16T00:33:50.275Z,16.57
2022-08-16T00:34:43.895Z,16.57
2022-08-16T00:35:25.870Z,16.57
2022-08-16T00:36:14.870Z,16.57
2022-08-16T00:37:04.854Z,16.59
2022-08-16T00:37:57.510Z,16.60
2022-08-16T00:38:44.806Z,16.60
2022-08-16T00:39:34.988Z,16.60
2022-08-16T00:40:34.337Z,16.62
2022-08-16T00:41:15.798Z,16.62
2022-08-16T00:42:04.777Z,16.62
2022-08-16T00:42:55.786Z,16.62
2022-08-16T00:43:44.756Z,16.63
2022-08-16T00:44:34.769Z,16.62
2022-08-16T00:45:25.169Z,16.62
2022-08-16T00:46:33.930Z,16.62
2022-08-16T00:47:06.200Z,16.60
2022-08-16T00:47:54.736Z,16.62
2022-08-16T00:48:45.685Z,16.59
2022-08-16T00:49:39.638Z,16.57
2022-08-16T00:50:36.073Z,16.57
2022-08-16T00:51:16.162Z,16.54
2022-08-16T00:52:04.677Z,16.54
2022-08-16T00:52:55.981Z,16.57
2022-08-16T00:53:44.668Z,16.59
2022-08-16T00:54:34.659Z,16.60
2022-08-16T00:55:24.626Z,16.60
2022-08-16T00:56:56.980Z,16.62
2022-08-16T00:57:05.639Z,16.60
2022-08-16T00:57:58.621Z,16.60
2022-08-16T00:58:45.608Z,16.59
2022-08-16T00:59:34.612Z,16.54
2022-08-16T01:00:24.588Z,16.52
2022-08-16T01:01:14.644Z,16.52
2022-08-16T01:02:21.881Z,16.51
2022-08-16T01:02:55.554Z,16.51
2022-08-16T01:03:44.535Z,16.51
2022-08-16T01:04:34.533Z,16.54
2022-08-16T01:05:24.556Z,16.55
2022-08-16T01:06:32.488Z,16.55
2022-08-16T01:07:06.667Z,16.57
2022-08-16T01:07:54.505Z,16.59
2022-08-16T01:08:44.504Z,16.60
2022-08-16T01:09:34.478Z,16.60
2022-08-16T01:10:31.444Z,16.62
2022-08-16T01:11:15.455Z,16.62
2022-08-16T01:12:04.460Z,16.60
2022-08-16T01:12:54.455Z,16.62
2022-08-16T01:13:44.435Z,16.62
2022-08-16T01:14:34.425Z,16.62
2022-08-16T01:15:24.436Z,16.62
2022-08-16T01:16:14.404Z,16.63
2022-08-16T01:17:08.243Z,16.62
2022-08-16T01:17:56.041Z,16.60
2022-08-16T01:18:44.382Z,16.59
2022-08-16T01:19:34.385Z,16.62
2022-08-16T01:20:30.207Z,16.62
2022-08-16T01:21:15.375Z,16.62
2022-08-16T01:22:49.566Z,16.63
2022-08-16T01:22:55.878Z,16.67
2022-08-16T01:24:00.775Z,16.66
2022-08-16T01:24:52.223Z,16.67
2022-08-16T01:25:33.961Z,16.67
2022-08-16T01:26:34.959Z,16.66
2022-08-16T01:27:05.294Z,16.67
2022-08-16T01:27:54.284Z,16.67
2022-08-16T01:28:45.346Z,16.67
2022-08-16T01:29:57.183Z,16.66
2022-08-16T01:30:26.427Z,16.67
2022-08-16T01:31:14.256Z,16.67
2022-08-16T01:32:04.267Z,16.66
2022-08-16T01:33:01.624Z,16.66
2022-08-16T01:33:45.224Z,16.65
2022-08-16T01:34:34.224Z,16.63
2022-08-16T01:35:25.210Z,16.65
2022-08-16T01:36:14.201Z,16.65
2022-08-16T01:37:04.183Z,16.63
2022-08-16T01:37:54.612Z,16.62
2022-08-16T01:38:46.891Z,16.62
2022-08-16T01:39:35.521Z,16.60
2022-08-16T01:40:24.133Z,16.59
2022-08-16T01:41:19.228Z,16.57
2022-08-16T01:42:07.803Z,16.55
2022-08-16T01:42:55.336Z,16.55
2022-08-16T01:43:44.104Z,16.54
2022-08-16T01:44:37.638Z,16.51
2022-08-16T01:45:24.093Z,16.50
2022-08-16T01:46:29.582Z,16.50
2022-08-16T01:47:05.086Z,16.47
2022-08-16T01:47:54.071Z,16.45
2022-08-16T01:48:44.051Z,16.42
2022-08-16T01:49:45.521Z,16.37
2022-08-16T01:50:42.430Z,16.34
2022-08-16T01:51:16.841Z,16.33
2022-08-16T01:52:04.023Z,16.34
2022-08-16T01:52:54.036Z,16.33
2022-08-16T01:53:43.991Z,16.33
2022-08-16T01:54:34.012Z,16.32
2022-08-16T01:55:23.972Z,16.33
2022-08-16T01:56:23.684Z,16.33
2022-08-16T01:57:04.970Z,16.34
2022-08-16T01:57:56.188Z,16.34
2022-08-16T01:58:47.982Z,16.36
2022-08-16T01:59:33.933Z,16.36
2022-08-16T02:00:29.147Z,16.37
2022-08-16T02:01:15.023Z,16.37
2022-08-16T02:02:03.939Z,16.36
2022-08-16T02:02:54.891Z,16.37
2022-08-16T02:03:43.873Z,16.36
2022-08-16T02:04:49.319Z,16.34
2022-08-16T02:05:24.903Z,16.36
2022-08-16T02:06:14.864Z,16.40
2022-08-16T02:07:04.852Z,16.40
2022-08-16T02:07:53.832Z,16.36
2022-08-16T02:08:43.845Z,16.36
2022-08-16T02:09:34.832Z,16.33
2022-08-16T02:10:23.813Z,16.30
2022-08-16T02:11:13.855Z,16.27
2022-08-16T02:12:40.156Z,16.26
2022-08-16T02:12:56.153Z,16.25
2022-08-16T02:13:44.763Z,16.23
2022-08-16T02:14:33.761Z,16.18
2022-08-16T02:15:25.261Z,16.17
2022-08-16T02:16:18.492Z,16.18
2022-08-16T02:17:04.757Z,16.22
2022-08-16T02:17:53.782Z,16.23
2022-08-16T02:18:43.732Z,16.25
2022-08-16T02:19:58.570Z,16.26
2022-08-16T02:20:26.128Z,16.27
2022-08-16T02:21:13.715Z,16.29
2022-08-16T02:22:07.833Z,16.30
2022-08-16T02:22:55.214Z,16.29
2022-08-16T02:23:43.660Z,16.32
2022-08-16T02:24:40.872Z,16.33
2022-08-16T02:25:24.653Z,16.34
2022-08-16T02:26:15.882Z,16.33
2022-08-16T02:27:04.621Z,16.34
2022-08-16T02:27:53.634Z,16.36
2022-08-16T02:28:47.064Z,16.37
2022-08-16T02:29:33.612Z,16.37
2022-08-16T02:30:35.725Z,16.37
2022-08-16T02:31:14.583Z,16.36
2022-08-16T02:32:49.349Z,16.36
2022-08-16T02:32:54.573Z,16.34
2022-08-16T02:33:50.134Z,16.36
2022-08-16T02:34:40.397Z,16.36
2022-08-16T02:35:24.572Z,16.33
2022-08-16T02:36:14.596Z,16.32
2022-08-16T02:37:04.541Z,16.32
2022-08-16T02:37:53.663Z,16.30
2022-08-16T02:38:43.510Z,16.30
2022-08-16T02:39:33.558Z,16.32
2022-08-16T02:40:23.472Z,16.32
2022-08-16T02:41:13.472Z,16.33
2022-08-16T02:42:03.462Z,16.30
2022-08-16T02:42:53.743Z,16.30
2022-08-16T02:43:43.458Z,16.30
2022-08-16T02:44:33.443Z,16.32
2022-08-16T02:45:24.821Z,16.32
2022-08-16T02:46:13.421Z,16.32
2022-08-16T02:47:03.400Z,16.30
2022-08-16T02:48:00.194Z,16.30
2022-08-16T02:48:49.091Z,16.30
2022-08-16T02:49:58.994Z,16.29
2022-08-16T02:50:55.332Z,16.30
2022-08-16T02:51:14.362Z,16.27
2022-08-16T02:52:03.348Z,16.26
2022-08-16T02:52:54.341Z,16.26
2022-08-16T02:53:43.752Z,16.26
2022-08-16T02:54:33.330Z,16.27
2022-08-16T02:55:41.137Z,16.27
2022-08-16T02:56:14.975Z,16.27
2022-08-16T02:57:03.290Z,16.29
2022-08-16T02:57:54.023Z,16.27
2022-08-16T02:58:44.188Z,16.29
2022-08-16T02:59:39.641Z,16.30
2022-08-16T03:00:33.708Z,16.29
2022-08-16T03:01:24.988Z,16.26
2022-08-16T03:02:08.249Z,16.23
2022-08-16T03:02:56.183Z,16.18
2022-08-16T03:04:28.792Z,16.17
2022-08-16T03:04:50.501Z,16.14
2022-08-16T03:05:24.200Z,16.13
2022-08-16T03:06:13.198Z,16.11
2022-08-16T03:07:04.190Z,16.10
2022-08-16T03:07:53.181Z,16.10
2022-08-16T03:08:52.269Z,16.08
2022-08-16T03:09:34.153Z,16.08
2022-08-16T03:10:23.152Z,16.08
2022-08-16T03:11:17.940Z,16.11
2022-08-16T03:12:04.140Z,16.10
2022-08-16T03:12:56.109Z,16.11
2022-08-16T03:13:43.132Z,16.13
2022-08-16T03:14:33.090Z,16.14
2022-08-16T03:15:23.092Z,16.14
2022-08-16T03:16:37.939Z,16.16
2022-08-16T03:17:04.071Z,16.17
2022-08-16T03:17:54.151Z,16.16
2022-08-16T03:18:43.109Z,16.16
2022-08-16T03:19:48.798Z,16.14
2022-08-16T03:20:32.186Z,16.13
2022-08-16T03:21:14.039Z,16.11
2022-08-16T03:22:03.032Z,16.11
2022-08-16T03:22:52.999Z,16.11
2022-08-16T03:23:43.023Z,16.10
2022-08-16T03:24:32.999Z,16.10
2022-08-16T03:25:22.979Z,16.04
2022-08-16T03:26:12.976Z,16.03
2022-08-16T03:27:03.192Z,16.01
2022-08-16T03:27:52.960Z,15.99
2022-08-16T03:28:42.953Z,16.03
2022-08-16T03:29:32.960Z,16.01
2022-08-16T03:30:22.939Z,16.01
2022-08-16T03:31:12.928Z,16.01
2022-08-16T03:32:02.921Z,15.99
2022-08-16T03:32:52.943Z,15.96
2022-08-16T03:33:42.902Z,15.95
2022-08-16T03:34:32.888Z,15.93
2022-08-16T03:35:22.879Z,15.93
2022-08-16T03:36:30.314Z,15.93
2022-08-16T03:37:03.849Z,15.93
2022-08-16T03:38:02.585Z,15.89
2022-08-16T03:38:43.849Z,15.86
2022-08-16T03:39:32.914Z,15.85
2022-08-16T03:40:33.037Z,15.80
2022-08-16T03:41:14.408Z,15.77
2022-08-16T03:42:03.808Z,15.76
2022-08-16T03:43:00.586Z,15.71
2022-08-16T03:43:51.070Z,15.68
2022-08-16T03:44:44.017Z,15.64
2022-08-16T03:45:27.278Z,15.62
2022-08-16T03:46:13.746Z,15.59
2022-08-16T03:47:03.738Z,15.58
2022-08-16T03:47:59.745Z,15.56
2022-08-16T03:48:43.729Z,15.53
2022-08-16T03:49:36.756Z,15.52
2022-08-16T03:50:25.550Z,15.49
2022-08-16T03:51:12.879Z,15.44
2022-08-16T03:52:02.687Z,15.43
2022-08-16T03:52:55.497Z,15.41
2022-08-16T03:53:43.669Z,15.40
2022-08-16T03:54:32.665Z,15.38
2022-08-16T03:55:22.658Z,15.37
2022-08-16T03:56:19.564Z,15.35
2022-08-16T03:57:05.069Z,15.33
2022-08-16T03:57:52.622Z,15.31
2022-08-16T03:58:42.621Z,15.28
2022-08-16T03:59:32.607Z,15.28
2022-08-16T04:00:35.671Z,15.25
2022-08-16T04:01:13.654Z,15.22
2022-08-16T04:02:07.230Z,15.22
2022-08-16T04:02:53.568Z,15.20
2022-08-16T04:03:42.557Z,15.19
2022-08-16T04:04:33.988Z,15.18
2022-08-16T04:05:22.548Z,15.18
2022-08-16T04:06:12.538Z,15.15
2022-08-16T04:07:02.759Z,15.15
2022-08-16T04:07:52.538Z,15.09
2022-08-16T04:08:42.507Z,15.04
2022-08-16T04:09:35.468Z,15.01
2022-08-16T04:10:37.054Z,15.00
2022-08-16T04:11:16.425Z,14.98
2022-08-16T04:12:02.475Z,14.97
2022-08-16T04:12:55.024Z,14.97
2022-08-16T04:14:00.813Z,14.95
2022-08-16T04:14:33.664Z,14.94
2022-08-16T04:15:22.438Z,14.94
2022-08-16T04:16:27.374Z,14.93
2022-08-16T04:17:03.410Z,14.91
2022-08-16T04:17:52.388Z,14.90
2022-08-16T04:18:42.407Z,14.91
2022-08-16T04:19:32.377Z,14.91
2022-08-16T04:20:29.432Z,14.91
2022-08-16T04:21:13.354Z,14.91
2022-08-16T04:22:08.468Z,14.93
2022-08-16T04:22:53.360Z,14.91
2022-08-16T04:23:42.337Z,14.87
2022-08-16T04:24:32.339Z,14.87
2022-08-16T04:25:22.713Z,14.87
2022-08-16T04:26:16.677Z,14.86
2022-08-16T04:27:03.286Z,14.85
2022-08-16T04:27:55.866Z,14.86
2022-08-16T04:28:53.398Z,14.86
2022-08-16T04:29:43.317Z,14.85
2022-08-16T04:30:32.432Z,14.86
2022-08-16T04:31:13.238Z,14.86
2022-08-16T04:32:02.314Z,14.87
2022-08-16T04:32:52.232Z,14.86
2022-08-16T04:33:50.680Z,14.86
2022-08-16T04:34:33.197Z,14.87
2022-08-16T04:35:22.852Z,14.86
2022-08-16T04:36:12.199Z,14.86
2022-08-16T04:37:03.186Z,14.85
2022-08-16T04:37:54.030Z,14.85
2022-08-16T04:38:42.156Z,14.80
2022-08-16T04:39:44.950Z,14.78
2022-08-16T04:40:25.151Z,14.72
2022-08-16T04:41:12.131Z,14.67
2022-08-16T04:42:11.322Z,14.67
2022-08-16T04:42:53.130Z,14.66
2022-08-16T04:43:43.773Z,14.67
2022-08-16T04:44:52.472Z,14.66
2022-08-16T04:45:35.813Z,14.66
2022-08-16T04:46:19.872Z,14.63
2022-08-16T04:47:24.174Z,14.60
2022-08-16T04:47:56.155Z,14.59
2022-08-16T04:48:42.055Z,14.60
2022-08-16T04:49:43.574Z,14.59
2022-08-16T04:50:23.026Z,14.59
2022-08-16T04:51:13.032Z,14.60
2022-08-16T04:52:02.015Z,14.59
2022-08-16T04:52:52.005Z,14.59
2022-08-16T04:53:42.007Z,14.57
2022-08-16T04:54:32.006Z,14.54
2022-08-16T04:55:21.978Z,14.56
2022-08-16T04:56:12.975Z,14.54
2022-08-16T04:57:01.952Z,14.52
2022-08-16T04:57:52.613Z,14.48
2022-08-16T04:58:45.495Z,14.46
2022-08-16T04:59:31.955Z,14.45
2022-08-16T05:00:31.288Z,14.44
2022-08-16T05:01:12.903Z,14.45
2022-08-16T05:02:01.950Z,14.42
2022-08-16T05:02:55.995Z,14.42
2022-08-16T05:04:00.000Z,14.41
2022-08-16T05:04:32.895Z,14.44
2022-08-16T05:05:21.867Z,14.42
2022-08-16T05:06:11.854Z,14.44
2022-08-16T05:07:01.850Z,14.42
2022-08-16T05:07:57.820Z,14.41
2022-08-16T05:08:47.362Z,14.42
2022-08-16T05:09:36.384Z,14.39
2022-08-16T05:10:23.069Z,14.36
2022-08-16T05:11:11.816Z,14.35
2022-08-16T05:12:01.793Z,14.31
2022-08-16T05:12:51.777Z,14.31
2022-08-16T05:13:42.577Z,14.30
2022-08-16T05:14:45.791Z,14.30
2022-08-16T05:15:22.754Z,14.30
2022-08-16T05:16:20.323Z,14.30
2022-08-16T05:17:02.744Z,14.30
2022-08-16T05:17:59.591Z,14.34
2022-08-16T05:18:42.993Z,14.35
2022-08-16T05:19:36.108Z,14.38
2022-08-16T05:20:39.484Z,14.39
2022-08-16T05:21:12.762Z,14.41
2022-08-16T05:22:01.674Z,14.42
2022-08-16T05:22:51.654Z,14.45
2022-08-16T05:23:44.290Z,14.46
2022-08-16T05:24:32.657Z,14.49
2022-08-16T05:25:21.635Z,14.52
2022-08-16T05:26:19.818Z,14.52
2022-08-16T05:27:11.158Z,14.53
2022-08-16T05:27:52.602Z,14.54
2022-08-16T05:28:41.604Z,14.56
2022-08-16T05:29:59.365Z,14.59
2022-08-16T05:30:35.257Z,14.57
2022-08-16T05:31:12.574Z,14.59
2022-08-16T05:32:01.553Z,14.60
2022-08-16T05:32:51.894Z,14.61
2022-08-16T05:33:42.183Z,14.63
2022-08-16T05:34:31.562Z,14.64
2022-08-16T05:35:21.512Z,14.64
2022-08-16T05:36:14.250Z,14.66
2022-08-16T05:37:01.512Z,14.66
2022-08-16T05:37:51.492Z,14.67
2022-08-16T05:38:41.483Z,14.69
2022-08-16T05:39:33.407Z,14.69
2022-08-16T05:40:22.463Z,14.71
2022-08-16T05:41:13.895Z,14.74
2022-08-16T05:42:01.462Z,14.75
2022-08-16T05:42:51.693Z,14.75
2022-08-16T05:43:46.443Z,14.79
2022-08-16T05:44:32.422Z,14.82
2022-08-16T05:45:23.161Z,14.83
2022-08-16T05:46:28.819Z,14.86
2022-08-16T05:47:02.392Z,14.86
2022-08-16T05:48:00.187Z,14.86
2022-08-16T05:48:42.382Z,14.85
2022-08-16T05:49:39.381Z,14.86
2022-08-16T05:50:22.365Z,14.87
2022-08-16T05:51:12.344Z,14.87
2022-08-16T05:52:02.332Z,14.91
2022-08-16T05:52:52.342Z,14.91
2022-08-16T05:53:41.401Z,14.94
2022-08-16T05:54:31.321Z,14.95
2022-08-16T05:55:21.291Z,14.95
2022-08-16T05:56:11.282Z,14.98
2022-08-16T05:57:02.284Z,15.00
2022-08-16T05:57:52.387Z,15.04
2022-08-16T05:58:41.264Z,15.05
2022-08-16T05:59:31.261Z,15.11
2022-08-16T06:00:22.686Z,15.09
2022-08-16T06:01:11.281Z,15.11
2022-08-16T06:02:01.224Z,15.12
2022-08-16T06:02:51.200Z,15.13
2022-08-16T06:03:41.204Z,15.15
2022-08-16T06:04:36.163Z,15.16
2022-08-16T06:05:22.182Z,15.19
2022-08-16T06:06:11.180Z,15.19
2022-08-16T06:07:04.516Z,15.22
2022-08-16T06:07:58.569Z,15.22
2022-08-16T06:08:44.777Z,15.22
2022-08-16T06:09:42.832Z,15.23
2022-08-16T06:10:32.952Z,15.27
2022-08-16T06:11:13.543Z,15.27
2022-08-16T06:12:01.109Z,15.30
2022-08-16T06:12:55.694Z,15.28
2022-08-16T06:13:42.060Z,15.31
2022-08-16T06:14:31.093Z,15.34
2022-08-16T06:15:21.091Z,15.35
2022-08-16T06:16:18.187Z,15.37
2022-08-16T06:17:05.603Z,15.35
2022-08-16T06:17:51.853Z,15.38
2022-08-16T06:18:41.021Z,15.38
2022-08-16T06:19:33.862Z,15.40
2022-08-16T06:20:23.546Z,15.40
2022-08-16T06:21:11.011Z,15.40
2022-08-16T06:22:01.091Z,15.41
2022-08-16T06:22:58.658Z,15.43
2022-08-16T06:23:42.013Z,15.46
2022-08-16T06:24:54.746Z,15.48
2022-08-16T06:25:36.502Z,15.51
2022-08-16T06:26:11.958Z,15.53
2022-08-16T06:27:00.982Z,15.55
2022-08-16T06:27:58.230Z,15.59
2022-08-16T06:28:41.926Z,15.59
2022-08-16T06:29:30.926Z,15.64
2022-08-16T06:30:20.888Z,15.66
2022-08-16T06:31:12.161Z,15.70
2022-08-16T06:32:00.889Z,15.74
2022-08-16T06:32:51.044Z,15.78
2022-08-16T06:33:41.652Z,15.81
2022-08-16T06:34:55.827Z,15.86
2022-08-16T06:35:21.859Z,15.91
2022-08-16T06:36:10.867Z,15.93
2022-08-16T06:37:00.872Z,15.98
2022-08-16T06:37:51.538Z,15.99
2022-08-16T06:38:55.804Z,16.03
2022-08-16T06:39:31.809Z,16.06
2022-08-16T06:40:20.868Z,16.08
2022-08-16T06:41:13.650Z,16.10
2022-08-16T06:42:00.781Z,16.14
2022-08-16T06:42:55.281Z,16.17
2022-08-16T06:43:41.779Z,16.18
2022-08-16T06:44:30.736Z,16.22
2022-08-16T06:45:20.734Z,16.23
2022-08-16T06:46:10.720Z,16.26
2022-08-16T06:47:02.809Z,16.27
2022-08-16T06:47:53.466Z,16.30
2022-08-16T06:48:42.895Z,16.33
2022-08-16T06:49:31.415Z,16.34
2022-08-16T06:50:28.411Z,16.36
2022-08-16T06:51:11.668Z,16.40
2022-08-16T06:52:03.060Z,16.41
2022-08-16T06:52:59.717Z,16.44
2022-08-16T06:53:41.679Z,16.45
2022-08-16T06:54:30.656Z,16.48
2022-08-16T06:55:20.628Z,16.50
2022-08-16T06:56:14.692Z,16.52
2022-08-16T06:57:01.611Z,16.59
2022-08-16T06:57:50.649Z,16.63
2022-08-16T06:58:40.575Z,16.67
2022-08-16T06:59:30.568Z,16.72
2022-08-16T07:00:24.806Z,16.73
2022-08-16T07:01:14.990Z,16.80
2022-08-16T07:02:01.594Z,16.81
2022-08-16T07:02:51.896Z,16.82
2022-08-16T07:03:55.301Z,16.85
2022-08-16T07:04:36.993Z,16.88
2022-08-16T07:05:27.219Z,16.90
2022-08-16T07:06:11.507Z,16.92
2022-08-16T07:07:00.491Z,16.95
2022-08-16T07:07:50.988Z,16.96
2022-08-16T07:08:40.487Z,16.99
2022-08-16T07:09:30.657Z,17.02
2022-08-16T07:10:20.455Z,17.03
2022-08-16T07:11:11.437Z,17.06
2022-08-16T07:12:03.738Z,17.07
2022-08-16T07:13:03.546Z,17.09
2022-08-16T07:14:03.598Z,17.12
2022-08-16T07:14:31.405Z,17.15
2022-08-16T07:15:20.388Z,17.17
2022-08-16T07:16:10.440Z,17.21
2022-08-16T07:17:00.378Z,17.22
2022-08-16T07:17:50.378Z,17.24
2022-08-16T07:18:40.369Z,17.28
2022-08-16T07:20:04.035Z,17.33
2022-08-16T07:20:29.998Z,17.35
2022-08-16T07:21:11.345Z,17.39
2022-08-16T07:22:00.377Z,17.42
2022-08-16T07:22:52.612Z,17.45
2022-08-16T07:23:41.297Z,17.47
2022-08-16T07:24:31.186Z,17.51
2022-08-16T07:25:20.289Z,17.54
2022-08-16T07:26:10.302Z,17.60
2022-08-16T07:27:00.588Z,17.65
2022-08-16T07:27:50.291Z,17.71
2022-08-16T07:28:40.245Z,17.76
2022-08-16T07:29:31.696Z,17.79
2022-08-16T07:30:38.798Z,17.84
2022-08-16T07:31:12.971Z,17.91
2022-08-16T07:32:00.574Z,17.96
2022-08-16T07:32:51.373Z,18.04
2022-08-16T07:33:53.479Z,18.16
2022-08-16T07:34:34.812Z,18.35
2022-08-16T07:35:20.187Z,18.50
2022-08-16T07:36:10.189Z,18.56
2022-08-16T07:37:00.187Z,18.60
2022-08-16T07:37:50.167Z,18.65
2022-08-16T07:38:40.149Z,18.69
2022-08-16T07:39:33.510Z,18.74
2022-08-16T07:40:31.836Z,18.84
2022-08-16T07:41:11.267Z,18.91
2022-08-16T07:42:00.108Z,19.05
2022-08-16T07:42:50.418Z,19.20
2022-08-16T07:43:40.360Z,19.30
2022-08-16T07:44:37.546Z,19.38
2022-08-16T07:45:21.070Z,19.45
2022-08-16T07:46:38.822Z,19.46
2022-08-16T07:47:01.100Z,19.53
2022-08-16T07:47:51.174Z,19.58
2022-08-16T07:48:40.037Z,19.67
2022-08-16T07:49:32.400Z,19.71
2022-08-16T07:50:56.214Z,19.78
2022-08-16T07:51:11.017Z,19.87
2022-08-16T07:52:00.054Z,19.90
2022-08-16T07:52:50.213Z,19.97
2022-08-16T07:53:43.889Z,20.01
2022-08-16T07:54:32.211Z,20.05
2022-08-16T07:55:20.980Z,20.10
2022-08-16T07:56:09.999Z,20.15
2022-08-16T07:56:59.948Z,20.25
2022-08-16T07:57:59.816Z,20.31
2022-08-16T07:58:40.947Z,20.37
2022-08-16T07:59:42.970Z,20.40
2022-08-16T08:00:20.917Z,20.46
2022-08-16T08:01:12.604Z,20.58
2022-08-16T08:01:59.896Z,20.64
2022-08-16T08:02:52.024Z,20.71
2022-08-16T08:03:42.564Z,20.78
2022-08-16T08:04:32.456Z,20.82
2022-08-16T08:05:28.192Z,20.88
2022-08-16T08:06:11.865Z,20.94
2022-08-16T08:06:59.876Z,21.00
2022-08-16T08:07:49.847Z,21.08
2022-08-16T08:08:51.266Z,21.15
2022-08-16T08:09:30.825Z,21.22
2022-08-16T08:10:29.569Z,21.28
2022-08-16T08:11:10.850Z,21.36
2022-08-16T08:12:01.465Z,21.40
2022-08-16T08:12:51.153Z,21.45
2022-08-16T08:13:42.470Z,21.46
2022-08-16T08:14:30.458Z,21.49
2022-08-16T08:15:25.150Z,21.53
2022-08-16T08:16:18.841Z,21.53
2022-08-16T08:17:01.587Z,21.58
2022-08-16T08:17:49.740Z,21.66
2022-08-16T08:18:39.738Z,21.70
2022-08-16T08:19:29.739Z,21.74
2022-08-16T08:20:26.179Z,21.81
2022-08-16T08:21:10.697Z,21.83
2022-08-16T08:22:02.384Z,21.89
2022-08-16T08:22:50.732Z,21.91
2022-08-16T08:23:42.560Z,21.94
2022-08-16T08:24:31.934Z,21.99
2022-08-16T08:25:19.647Z,22.05
2022-08-16T08:26:10.721Z,22.09
2022-08-16T08:27:00.650Z,22.12
2022-08-16T08:27:49.647Z,22.21
2022-08-16T08:28:40.625Z,22.27
2022-08-16T08:29:37.449Z,22.33
2022-08-16T08:31:00.735Z,22.38
2022-08-16T08:31:10.597Z,22.41
2022-08-16T08:32:00.617Z,22.44
2022-08-16T08:32:59.546Z,22.48
2022-08-16T08:33:43.807Z,22.51
2022-08-16T08:34:30.558Z,22.54
2022-08-16T08:35:19.546Z,22.59
2022-08-16T08:36:10.547Z,22.59
2022-08-16T08:37:00.540Z,22.60
2022-08-16T08:37:54.494Z,22.61
2022-08-16T08:38:45.985Z,22.61
2022-08-16T08:39:30.588Z,22.66
2022-08-16T08:40:19.594Z,22.67
2022-08-16T08:41:10.477Z,22.69
2022-08-16T08:41:59.467Z,22.72
2022-08-16T08:42:49.727Z,22.78
2022-08-16T08:43:41.786Z,22.81
2022-08-16T08:44:30.759Z,22.84
2022-08-16T08:45:43.064Z,22.88
2022-08-16T08:46:17.761Z,22.88
2022-08-16T08:47:01.887Z,22.93
2022-08-16T08:47:54.218Z,22.94
2022-08-16T08:48:40.397Z,22.99
2022-08-16T08:49:46.559Z,23.03
2022-08-16T08:50:32.203Z,23.07
2022-08-16T08:51:10.407Z,23.12
2022-08-16T08:51:59.452Z,23.15
2022-08-16T08:52:49.550Z,23.21
2022-08-16T08:53:39.374Z,23.23
2022-08-16T08:54:29.325Z,23.25
2022-08-16T08:55:19.308Z,23.29
2022-08-16T08:56:23.769Z,23.31
2022-08-16T08:57:00.289Z,23.38
2022-08-16T08:57:49.288Z,23.45
2022-08-16T08:58:39.309Z,23.52
2022-08-16T08:59:30.266Z,23.57
2022-08-16T09:00:21.218Z,23.63
2022-08-16T09:01:09.470Z,23.71
2022-08-16T09:01:59.249Z,23.77
2022-08-16T09:02:52.274Z,23.82
2022-08-16T09:03:39.292Z,23.81
2022-08-16T09:04:29.590Z,23.62
2022-08-16T09:05:19.208Z,23.45
2022-08-16T09:06:09.198Z,23.47
2022-08-16T09:07:01.361Z,23.53
2022-08-16T09:08:01.570Z,23.59
2022-08-16T09:08:40.168Z,23.68
2022-08-16T09:09:33.421Z,23.74
2022-08-16T09:10:20.314Z,23.82
2022-08-16T09:11:09.125Z,23.89
2022-08-16T09:12:06.058Z,23.93
2022-08-16T09:12:50.504Z,24.02
2022-08-16T09:13:39.112Z,24.06
2022-08-16T09:14:30.108Z,24.09
2022-08-16T09:15:21.562Z,24.11
2022-08-16T09:16:10.326Z,24.11
2022-08-16T09:17:03.037Z,24.11
2022-08-16T09:17:51.754Z,24.15
2022-08-16T09:18:39.066Z,24.18
2022-08-16T09:19:32.850Z,24.12
2022-08-16T09:20:20.139Z,24.08
2022-08-16T09:21:09.557Z,24.06
2022-08-16T09:21:59.015Z,24.06
2022-08-16T09:22:52.470Z,24.04
2022-08-16T09:23:38.989Z,24.02
2022-08-16T09:24:51.895Z,24.02
2022-08-16T09:25:25.849Z,24.09
2022-08-16T09:26:44.573Z,24.19
2022-08-16T09:26:59.927Z,24.23
2022-08-16T09:27:57.944Z,24.14
2022-08-16T09:29:15.751Z,24.15
2022-08-16T09:29:44.899Z,24.14
2022-08-16T09:30:32.599Z,24.19
2022-08-16T09:31:10.998Z,24.26
2022-08-16T09:31:58.878Z,24.34
2022-08-16T09:32:48.986Z,24.45
2022-08-16T09:33:39.351Z,24.53
2022-08-16T09:34:28.849Z,24.45
2022-08-16T09:35:18.851Z,24.26
2022-08-16T09:36:11.957Z,24.21
2022-08-16T09:37:00.209Z,24.27
2022-08-16T09:38:00.587Z,24.37
2022-08-16T09:38:40.913Z,24.46
2022-08-16T09:39:28.824Z,24.56
2022-08-16T09:40:33.150Z,24.66
2022-08-16T09:41:14.757Z,24.70
2022-08-16T09:41:59.772Z,24.74
2022-08-16T09:42:56.328Z,24.77
2022-08-16T09:44:00.211Z,24.80
2022-08-16T09:45:12.781Z,24.82
2022-08-16T09:45:19.739Z,24.83
2022-08-16T09:46:44.418Z,24.87
2022-08-16T09:46:59.688Z,24.92
2022-08-16T09:47:56.243Z,24.89
2022-08-16T09:48:44.799Z,24.84
2022-08-16T09:49:37.184Z,24.90
2022-08-16T09:50:22.626Z,24.97
2022-08-16T09:51:08.873Z,25.05
2022-08-16T09:51:58.630Z,25.09
2022-08-16T09:52:48.833Z,25.19
2022-08-16T09:53:38.630Z,25.24
2022-08-16T09:54:32.445Z,25.29
2022-08-16T09:55:18.602Z,25.38
2022-08-16T09:56:11.493Z,25.45
2022-08-16T09:56:58.588Z,25.54
2022-08-16T09:57:53.048Z,25.61
2022-08-16T09:59:03.779Z,25.66
2022-08-16T09:59:30.514Z,25.67
2022-08-16T10:00:43.905Z,25.71
2022-08-16T10:01:11.424Z,25.72
2022-08-16T10:01:58.531Z,25.78
2022-08-16T10:02:48.539Z,25.79
2022-08-16T10:03:38.592Z,25.83
2022-08-16T10:04:37.180Z,25.86
2022-08-16T10:05:19.504Z,25.82
2022-08-16T10:06:11.216Z,25.79
2022-08-16T10:07:48.451Z,25.72
2022-08-16T10:08:59.738Z,25.67
2022-08-16T10:09:44.897Z,25.59
2022-08-16T10:10:30.201Z,25.59
2022-08-16T10:11:09.576Z,25.44
2022-08-16T10:12:10.933Z,25.46
2022-08-16T10:12:55.680Z,25.53
2022-08-16T10:13:39.402Z,25.63
2022-08-16T10:14:33.106Z,25.72
2022-08-16T10:15:19.373Z,25.78
2022-08-16T10:16:08.422Z,25.85
2022-08-16T10:17:00.150Z,25.91
2022-08-16T10:18:00.141Z,25.96
2022-08-16T10:18:56.599Z,25.94
2022-08-16T10:19:29.337Z,25.89
2022-08-16T10:20:18.579Z,25.86
2022-08-16T10:21:08.301Z,25.82
2022-08-16T10:21:58.290Z,25.76
2022-08-16T10:22:48.493Z,25.81
2022-08-16T10:23:38.292Z,25.82
2022-08-16T10:24:29.009Z,25.83
2022-08-16T10:27:16.308Z,25.81
2022-08-16T10:27:17.501Z,25.85
2022-08-16T10:27:25.864Z,25.83
2022-08-16T10:27:53.312Z,25.85
2022-08-16T10:28:40.268Z,25.93
2022-08-16T10:29:59.428Z,25.98
2022-08-16T10:30:25.958Z,26.04
2022-08-16T10:31:12.007Z,26.09
2022-08-16T10:31:59.192Z,26.13
2022-08-16T10:32:48.202Z,26.16
2022-08-16T10:33:40.334Z,26.20
2022-08-16T10:34:31.725Z,26.24
2022-08-16T10:35:18.686Z,26.31
2022-08-16T10:36:08.218Z,26.34
2022-08-16T10:36:58.135Z,26.17
2022-08-16T10:37:48.388Z,26.13
2022-08-16T10:38:38.106Z,26.13
2022-08-16T10:39:41.107Z,26.17
2022-08-16T10:40:29.133Z,26.16
2022-08-16T10:41:09.082Z,26.11
2022-08-16T10:41:58.085Z,26.12
2022-08-16T10:42:48.150Z,26.12
2022-08-16T10:43:38.065Z,26.16
2022-08-16T10:44:28.055Z,26.13